Watertown, SD

4:13 AM CST on December 19, 2014 (GMT -0600)
Watertown Municipal | Change Station
CLOSE
Current Station
Airport
Location: Watertown,
Elevation: 1749 ft
Nearby Weather Stations
Active Advisory: Special Statement

Elev 1749 ft 44.90 °N, 97.15 °W | Updated 20 minutes ago

Overcast
Overcast
26 °F
Feels Like 16 °F
N
10
Wind Variable Wind from South

Today
High -- | Low -- °F
--% Chance of Precip.
Yesterday
High -- | Low -- °F
Precip. -- in
8:02 AM 4:49 PM
Waning Crescent, 9% visible
Pressure 30.17 in
Visibility 4.0 miles
Clouds Overcast 400 ft
Windchill 16 °F
Dew Point 24 °F
Humidity 92%
Rainfall 0.00 in
Snow Depth Not available.
UV 0 out of 12
Pollen .10 out of 12
Air Quality Not available.
Flu Activity Not available.
METAR KATY 190953Z AUTO 18009KT 4SM BR OVC004 M03/M04 A3009 RMK AO2 SLP215 T10331044

More Conditions Fewer Conditions

Pressure 30.17 in
Visibility 4.0 miles
Clouds Overcast 400 ft
Windchill 16 °F
Dew Point 24 °F
Humidity 92%
Rainfall 0.00 in
Snow Depth Not available.
UV 0 out of 12
Pollen .10 out of 12
Air Quality Not available.
Flu Activity Not available.
METAR KATY 190953Z AUTO 18009KT 4SM BR OVC004 M03/M04 A3009 RMK AO2 SLP215 T10331044

More Conditions Fewer Conditions

10-Day Weather Forecast

Almanac

Astronomy

Dec. 19, 2014 Rise Set
Actual Time
Civil Twilight
Nautical Twilight
Astronomical Twilight
Moon
Length of Visible Light
Length of Day
Tomorrow will be .
, % of the Moon is Illuminated

Today's Extremes

State Highs State Lows

Community

WunderPhotos

Upload Photos

1,778,966 photos uploaded!

WunderBlogs® & News

Nearby

Air Quality

  Air Quality AQ Index Pollutant
Not available.

Snow Depth

Station Depth Elevation

Earthquake Activity

City Distance Mag. Time & Date
Minimum magnitude displayed is 2.5.

Coastal Water Temperatures

Place Temperature

Nearby Weather Stations